Погода Вержана 2 недели

Смоленская область, Россия

25 мая-06 июня
  • 25мая
    Сегодня
    +8°
    +24°
    Ясно и безоблачно
    ВремяПогодаТемператураВлажностьДавлениеВетер, м/сВероятность осадков
    00:00Ясно и безоблачно+10°C53 %752 мм2.6 м/с2 %
    03:00Ясно и безоблачно+8°C62 %752 мм2.7 м/с2 %
    06:00Ясно и безоблачно+8°C65 %752 мм2.6 м/с2 %
    09:00Ясно и безоблачно+16°C49 %752 мм1.7 м/с2 %
    12:00Ясно и безоблачно+21°C33 %752 мм2.0 м/с2 %
    15:00Ясно и безоблачно+23°C30 %750 мм2.4 м/с2 %
    18:00Ясно и безоблачно+23°C32 %749 мм2.1 м/с2 %
    21:00Ясно и безоблачно+18°C61 %749 мм1.6 м/с2 %
  • 26мая
    Воскресенье
    +11°
    +26°
    Практически безоблачно
    ВремяПогодаТемператураВлажностьДавлениеВетер, м/сВероятность осадков
    00:00Ясно и безоблачно+12°C71 %749 мм1.7 м/с2 %
    03:00Ясно и безоблачно+9°C80 %748 мм1.7 м/с2 %
    06:00Практически безоблачно+11°C77 %748 мм1.9 м/с2 %
    09:00Ясно и безоблачно+20°C48 %749 мм1.9 м/с2 %
    12:00Ясно и безоблачно+24°C35 %749 мм2.5 м/с1 %
    15:00Практически безоблачно+25°C32 %748 мм2.6 м/с10 %
    18:00Облачно с прояснениями+23°C50 %748 мм3.3 м/с22 %
    21:00Ясно и безоблачно+19°C69 %748 мм2.2 м/с10 %
  • 27мая
    Понедельник
    +11°
    +25°
    Ясно и безоблачно
    ВремяПогодаТемператураВлажностьДавлениеВетер, м/сВероятность осадков
    00:00Ясно и безоблачно+14°C92 %748 мм2.6 м/с2 %
    03:00Ясно и безоблачно+12°C95 %749 мм3.0 м/с2 %
    06:00Ясно и безоблачно+13°C68 %750 мм2.8 м/с2 %
    09:00Ясно и безоблачно+19°C49 %750 мм2.4 м/с2 %
    12:00Ясно и безоблачно+22°C41 %750 мм3.1 м/с16 %
    15:00Ясно и безоблачно+24°C36 %749 мм2.2 м/с20 %
    18:00Ясно и безоблачно+23°C36 %748 мм1.9 м/с13 %
    21:00Ясно и безоблачно+19°C53 %748 мм2.4 м/с4 %
  • 28мая
    Вторник
    +11°
    +25°
    Небольшая облачность
    ВремяПогодаТемператураВлажностьДавлениеВетер, м/сВероятность осадков
    00:00Ясно и безоблачно+14°C62 %748 мм2.4 м/с2 %
    03:00Небольшая облачность+12°C72 %748 мм1.9 м/с2 %
    06:00Ясно и безоблачно+13°C75 %747 мм1.9 м/с2 %
    09:00Ясно и безоблачно+21°C58 %748 мм1.3 м/с2 %
    12:00Практически безоблачно+24°C40 %747 мм1.3 м/с8 %
    15:00Небольшая облачность+25°C34 %747 мм1.0 м/с18 %
    18:00Облачно с прояснениями+25°C33 %745 мм1.2 м/с22 %
    21:00Практически безоблачно+22°C49 %745 мм2.2 м/с4 %
Мы используем cookies
Соглашаюсь